Time;durP1;ratioP1;P1;durP2;ratioP2;P2;SDS_P1;SDS_P2;PMS_P1;PMS_P2;Temp;Humidity;BMP_temperature;BMP_pressure;BME280_temperature;BME280_humidity;BME280_pressure;Samples;Min_cycle;Max_cycle;Signal;HPM_P1;HPM_P2
2021/06/20 00:00:31;;;;;;;215.73;199.27;;;;;;;17.05;100.00;100956.22;5070724;28;20052;-91
2021/06/20 00:02:58;;;;;;;201.32;185.88;;;;;;;17.07;100.00;100956.81;5066869;28;20124;-91
2021/06/20 00:05:29;;;;;;;218.32;202.13;;;;;;;17.01;100.00;100948.91;5070142;28;20136;-91
2021/06/20 00:07:59;;;;;;;214.90;198.55;;;;;;;16.94;100.00;100960.63;5067731;28;20079;-91
2021/06/20 00:10:29;;;;;;;222.85;206.18;;;;;;;17.10;100.00;100955.50;5071170;28;20510;-91
2021/06/20 00:12:57;;;;;;;195.00;179.23;;;;;;;17.14;100.00;100948.59;5072130;28;20041;-91
2021/06/20 00:15:27;;;;;;;197.10;181.20;;;;;;;17.10;100.00;100944.78;5069993;28;20426;-91
2021/06/20 00:17:55;;;;;;;186.75;171.38;;;;;;;17.06;100.00;100948.97;5063413;28;20072;-91
2021/06/20 00:20:24;;;;;;;247.15;229.80;;;;;;;17.08;100.00;100946.88;5068022;28;20045;-92
2021/06/20 00:22:52;;;;;;;206.65;190.82;;;;;;;17.09;100.00;100945.81;5069176;28;20082;-91
2021/06/20 00:25:21;;;;;;;186.02;170.60;;;;;;;17.01;100.00;100949.72;5068788;28;20041;-91
2021/06/20 00:27:48;;;;;;;208.55;192.02;;;;;;;17.10;100.00;100950.16;5069140;28;20067;-91
2021/06/20 00:30:18;;;;;;;210.10;193.30;;;;;;;17.15;100.00;100955.56;5071724;28;20055;-91
2021/06/20 00:32:46;;;;;;;193.57;178.05;;;;;;;17.05;100.00;100950.84;5071267;28;20080;-91
2021/06/20 00:35:14;;;;;;;211.98;195.73;;;;;;;17.04;100.00;100957.28;5072027;28;20056;-91
2021/06/20 00:37:41;;;;;;;222.70;206.10;;;;;;;17.06;100.00;100959.72;5071784;28;20509;-91
2021/06/20 00:40:09;;;;;;;204.52;187.93;;;;;;;17.10;100.00;100967.06;5071838;28;20049;-91
2021/06/20 00:42:38;;;;;;;241.88;224.32;;;;;;;17.05;100.00;100971.53;5068185;28;20445;-90
2021/06/20 00:45:07;;;;;;;222.93;205.63;;;;;;;17.04;100.00;100973.41;5067938;28;20053;-91
2021/06/20 00:47:34;;;;;;;228.70;211.57;;;;;;;17.04;100.00;100975.28;5069544;28;20522;-92
2021/06/20 00:50:01;;;;;;;263.65;244.38;;;;;;;16.98;100.00;100968.19;5069301;28;20494;-91
2021/06/20 00:52:28;;;;;;;228.13;211.18;;;;;;;17.08;100.00;100968.34;5066492;28;20139;-91
2021/06/20 00:54:58;;;;;;;210.65;194.10;;;;;;;17.10;100.00;100964.38;5070593;28;20142;-92
2021/06/20 00:57:25;;;;;;;222.48;206.38;;;;;;;17.00;100.00;100968.75;5065281;28;20135;-91
2021/06/20 00:59:53;;;;;;;209.48;193.40;;;;;;;17.04;100.00;100972.59;5067079;28;20044;-90
2021/06/20 01:02:21;;;;;;;196.48;181.32;;;;;;;17.03;100.00;100960.19;5071660;28;20067;-90
2021/06/20 01:04:50;;;;;;;236.18;218.48;;;;;;;17.08;100.00;100965.66;5066990;28;20108;-90
2021/06/20 01:07:18;;;;;;;217.57;200.40;;;;;;;17.06;100.00;100965.09;5071143;28;20049;-91
2021/06/20 01:09:46;;;;;;;208.70;192.10;;;;;;;17.02;100.00;100969.31;5053145;28;20460;-90
2021/06/20 01:12:14;;;;;;;204.70;188.57;;;;;;;17.00;100.00;100964.19;5064734;28;20524;-90
2021/06/20 01:14:43;;;;;;;209.82;192.93;;;;;;;17.02;100.00;100972.00;5066710;28;20051;-88
2021/06/20 01:17:13;;;;;;;208.98;192.20;;;;;;;17.04;100.00;100975.28;5067050;28;20048;-91
2021/06/20 01:19:41;;;;;;;230.93;214.02;;;;;;;17.03;100.00;100965.56;5066046;28;20417;-91
2021/06/20 01:22:17;;;;;;;216.25;198.98;;;;;;;17.01;100.00;100960.47;5067507;28;20048;-91
2021/06/20 01:24:45;;;;;;;235.23;217.80;;;;;;;17.02;100.00;100967.44;5070251;28;20494;-91
2021/06/20 01:27:12;;;;;;;217.95;200.38;;;;;;;17.07;100.00;100964.84;5066193;28;20052;-90
2021/06/20 01:29:45;;;;;;;223.55;206.60;;;;;;;17.04;100.00;100968.03;5066756;28;20036;-91
2021/06/20 01:32:13;;;;;;;238.93;220.63;;;;;;;17.02;100.00;100958.59;5069363;28;20094;-91
2021/06/20 01:34:41;;;;;;;238.63;220.55;;;;;;;16.95;100.00;100969.47;5071143;28;20541;-91
2021/06/20 01:37:26;;;;;;;236.60;218.20;;;;;;;16.94;100.00;100966.00;5072755;28;20128;-90
2021/06/20 01:40:03;;;;;;;213.63;196.32;;;;;;;16.92;100.00;100961.91;5069497;28;20118;-91
2021/06/20 01:42:30;;;;;;;267.58;247.73;;;;;;;16.84;100.00;100959.63;5065775;28;20482;-92
2021/06/20 01:44:58;;;;;;;250.52;231.13;;;;;;;16.84;100.00;100952.38;5066626;28;20123;-91
2021/06/20 01:47:26;;;;;;;228.48;210.77;;;;;;;16.82;100.00;100959.84;5067304;28;20237;-91
2021/06/20 01:49:54;;;;;;;243.38;224.85;;;;;;;16.85;100.00;100959.41;5065785;28;20056;-91
2021/06/20 01:52:22;;;;;;;247.45;228.95;;;;;;;16.79;100.00;100948.78;5065120;28;20048;-91
2021/06/20 01:54:52;;;;;;;204.15;188.07;;;;;;;16.71;100.00;100958.84;5065699;28;20044;-92
2021/06/20 01:57:21;;;;;;;226.95;209.32;;;;;;;16.71;100.00;100948.09;5065375;28;20102;-91
2021/06/20 01:59:48;;;;;;;216.57;199.55;;;;;;;16.79;100.00;100954.16;5068502;28;20045;-92
2021/06/20 02:02:15;;;;;;;237.63;220.05;;;;;;;16.86;100.00;100957.53;5075129;22;20057;-79
2021/06/20 02:04:42;;;;;;;239.10;221.77;;;;;;;16.83;100.00;100956.13;5066798;28;20045;-79
2021/06/20 02:07:10;;;;;;;209.07;192.77;;;;;;;16.76;100.00;100950.06;5058458;28;20405;-79
2021/06/20 02:09:37;;;;;;;216.45;199.85;;;;;;;16.72;100.00;100949.72;5052893;28;20072;-79
2021/06/20 02:12:08;;;;;;;235.48;217.85;;;;;;;16.69;100.00;100954.75;5056624;28;20428;-77
2021/06/20 02:14:37;;;;;;;201.70;185.40;;;;;;;16.73;100.00;100953.22;5064058;28;20067;-79
2021/06/20 02:17:22;;;;;;;206.77;190.18;;;;;;;16.68;100.00;100953.94;5063263;28;20049;-77
2021/06/20 02:19:49;;;;;;;249.88;231.63;;;;;;;16.69;100.00;100954.75;5057961;28;20052;-77
2021/06/20 02:22:16;;;;;;;267.08;248.13;;;;;;;16.58;100.00;100959.13;5058558;28;20496;-77
2021/06/20 02:24:43;;;;;;;255.40;237.10;;;;;;;16.65;100.00;100954.44;5059092;28;20053;-77
2021/06/20 02:27:13;;;;;;;274.30;255.20;;;;;;;16.78;100.00;100950.66;5061291;28;20044;-77
2021/06/20 02:29:40;;;;;;;280.55;261.23;;;;;;;16.67;100.00;100954.19;5065550;28;20045;-80
2021/06/20 02:32:08;;;;;;;226.90;210.02;;;;;;;16.73;100.00;100955.91;5055322;28;20718;-79
2021/06/20 02:34:35;;;;;;;193.50;177.75;;;;;;;16.69;100.00;100954.75;5060798;28;20056;-78
2021/06/20 02:37:03;;;;;;;198.50;182.35;;;;;;;16.65;100.00;100956.31;5061611;28;20056;-80
2021/06/20 02:39:30;;;;;;;196.25;180.30;;;;;;;16.55;100.00;100958.78;5059285;28;20049;-78
2021/06/20 02:41:57;;;;;;;182.60;166.23;;;;;;;16.65;100.00;100956.31;5062151;28;20059;-80
2021/06/20 02:44:26;;;;;;;194.50;178.70;;;;;;;16.56;100.00;100961.22;5060064;28;20063;-79
2021/06/20 02:46:54;;;;;;;190.43;174.27;;;;;;;16.62;100.00;100960.28;5061020;28;20049;-80
2021/06/20 02:49:21;;;;;;;180.15;164.77;;;;;;;16.65;100.00;100959.78;5056590;28;20086;-77
2021/06/20 02:51:48;;;;;;;173.43;157.85;;;;;;;16.67;100.00;100951.50;5056992;28;20397;-78
2021/06/20 02:54:15;;;;;;;170.00;155.65;;;;;;;16.67;100.00;100949.66;5056622;28;20060;-80
2021/06/20 02:56:42;;;;;;;179.50;164.30;;;;;;;16.78;100.00;100958.72;5063803;28;20053;-77
2021/06/20 02:59:09;;;;;;;181.35;166.18;;;;;;;16.64;100.00;100950.13;5061838;28;20378;-77
2021/06/20 03:01:37;;;;;;;192.80;177.15;;;;;;;16.61;100.00;100952.47;5064553;28;20052;-79
2021/06/20 03:04:05;;;;;;;255.30;237.25;;;;;;;16.59;100.00;100955.41;5061088;28;20052;-79
2021/06/20 03:06:32;;;;;;;226.43;209.88;;;;;;;16.61;100.00;100949.78;5061158;28;20128;-78
2021/06/20 03:08:59;;;;;;;219.68;203.20;;;;;;;16.58;100.00;100951.09;5064299;28;20052;-79
2021/06/20 03:11:26;;;;;;;181.07;166.60;;;;;;;16.56;100.00;100953.19;5065146;28;20044;-79
2021/06/20 03:13:53;;;;;;;187.90;173.23;;;;;;;16.53;100.00;100952.88;5064513;28;20048;-77
2021/06/20 03:16:20;;;;;;;207.32;191.48;;;;;;;16.47;100.00;100950.06;5062651;28;20063;-77
2021/06/20 03:18:49;;;;;;;259.58;241.10;;;;;;;16.69;100.00;100950.19;5063120;28;20488;-77
2021/06/20 03:21:18;;;;;;;201.93;186.15;;;;;;;16.67;100.00;100951.50;5064514;28;20064;-78
2021/06/20 03:23:45;;;;;;;205.43;189.13;;;;;;;16.65;100.00;100954.44;5069068;28;20447;-78
2021/06/20 03:26:13;;;;;;;198.05;181.93;;;;;;;16.77;100.00;100953.59;5067740;28;20377;-78
2021/06/20 03:28:40;;;;;;;216.93;200.45;;;;;;;16.81;100.00;100952.88;5068061;28;20055;-79
2021/06/20 03:31:08;;;;;;;217.32;200.32;;;;;;;16.82;100.00;100948.31;5068245;28;20045;-77
2021/06/20 03:33:35;;;;;;;206.43;190.55;;;;;;;16.76;100.00;100957.31;5065744;28;20172;-79
2021/06/20 03:36:04;;;;;;;217.85;201.38;;;;;;;16.78;100.00;100953.34;5063624;28;20057;-77
2021/06/20 03:38:31;;;;;;;195.38;180.00;;;;;;;16.84;100.00;100951.56;5066191;28;20055;-79
2021/06/20 03:40:58;;;;;;;201.13;185.23;;;;;;;16.98;100.00;100955.59;5063571;28;20044;-80
2021/06/20 03:43:25;;;;;;;191.27;175.77;;;;;;;16.99;100.00;100965.25;5061598;28;20051;-80
2021/06/20 03:45:52;;;;;;;205.45;189.63;;;;;;;17.09;100.00;100962.72;5065632;28;20052;-80
2021/06/20 03:48:19;;;;;;;206.95;191.10;;;;;;;17.12;100.00;100954.19;5064158;28;20726;-77
2021/06/20 03:50:46;;;;;;;202.40;186.70;;;;;;;17.18;100.00;100957.78;5062743;28;20416;-80
2021/06/20 03:53:14;;;;;;;192.77;177.73;;;;;;;17.01;100.00;100948.91;5065533;28;20048;-80
2021/06/20 03:55:41;;;;;;;215.82;199.35;;;;;;;17.28;100.00;100949.91;5068177;28;20049;-80
2021/06/20 03:58:08;;;;;;;199.40;183.60;;;;;;;17.24;100.00;100947.94;5060949;28;20060;-79
2021/06/20 04:00:36;;;;;;;220.70;204.30;;;;;;;17.21;100.00;100945.75;5064068;28;20052;-78
2021/06/20 04:03:04;;;;;;;165.77;152.10;;;;;;;17.09;100.00;100951.19;5066336;28;20099;-77
2021/06/20 04:05:31;;;;;;;192.02;177.38;;;;;;;17.37;100.00;100948.44;5063673;28;20374;-79
2021/06/20 04:07:58;;;;;;;179.25;164.95;;;;;;;17.47;100.00;100949.63;5068404;28;20036;-76
2021/06/20 04:10:26;;;;;;;203.98;188.10;;;;;;;17.45;100.00;100946.38;5068105;28;20048;-77
2021/06/20 04:12:54;;;;;;;187.57;172.80;;;;;;;17.39;100.00;100940.91;5055775;28;20512;-76
2021/06/20 04:15:21;;;;;;;195.93;180.60;;;;;;;17.35;100.00;100944.34;5061407;28;20053;-76
2021/06/20 04:17:48;;;;;;;187.65;172.73;;;;;;;17.42;100.00;100949.56;5068759;28;20070;-79
2021/06/20 04:20:15;;;;;;;202.45;186.90;;;;;;;17.35;100.00;100944.34;5063319;28;20477;-78
2021/06/20 04:22:43;;;;;;;191.50;176.20;;;;;;;17.49;100.00;100944.81;5061521;28;20416;-77
2021/06/20 04:25:14;;;;;;;195.40;180.48;;;;;;;17.56;100.00;100938.22;5060794;28;20114;-79
2021/06/20 04:27:43;;;;;;;182.63;168.32;;;;;;;17.38;100.00;100935.81;5063752;28;20080;-77
2021/06/20 04:30:12;;;;;;;187.30;172.57;;;;;;;17.62;100.00;100937.25;5059818;28;20087;-76
2021/06/20 04:32:39;;;;;;;183.05;168.82;;;;;;;17.67;100.00;100927.63;5090092;22;20378;-91
2021/06/20 04:35:14;;;;;;;174.57;160.80;;;;;;;17.79;100.00;100928.34;5089468;28;20127;-91
2021/06/20 04:37:43;;;;;;;174.10;160.18;;;;;;;17.78;100.00;100924.03;5093820;28;20047;-91
2021/06/20 04:40:16;;;;;;;212.88;197.35;;;;;;;17.82;100.00;100919.78;5087835;28;20059;-91
2021/06/20 04:42:57;;;;;;;171.68;158.15;;;;;;;17.80;100.00;100921.94;5094637;28;20521;-91
2021/06/20 04:45:26;;;;;;;181.95;168.15;;;;;;;17.93;100.00;100918.06;5095779;28;20047;-91
2021/06/20 04:47:53;;;;;;;177.02;163.25;;;;;;;17.72;100.00;100922.31;5079408;28;20048;-91
2021/06/20 04:50:21;;;;;;;174.38;160.18;;;;;;;17.79;100.00;100923.81;5084696;28;20052;-91
2021/06/20 04:52:49;;;;;;;169.75;155.85;;;;;;;18.05;100.00;100919.56;5079087;28;20397;-91
2021/06/20 04:58:02;;;;;;;175.90;162.13;;;;;;;18.15;100.00;100910.78;5086362;28;20052;-90
2021/06/20 05:00:30;;;;;;;194.57;180.48;;;;;;;18.36;100.00;100897.56;5088553;28;20048;-92
2021/06/20 05:02:59;;;;;;;184.10;170.55;;;;;;;18.33;100.00;100900.78;5082588;28;20092;-88
2021/06/20 05:05:27;;;;;;;218.48;202.70;;;;;;;18.44;100.00;100910.56;5084274;28;20059;-91
2021/06/20 05:07:54;;;;;;;168.73;155.57;;;;;;;18.29;100.00;100898.59;5085741;28;20048;-90
2021/06/20 05:10:22;;;;;;;195.35;180.85;;;;;;;18.59;100.00;100902.66;5089252;28;20040;-91
2021/06/20 05:12:54;;;;;;;166.10;153.02;;;;;;;18.25;100.00;100902.84;5089136;28;20070;-90
2021/06/20 05:15:27;;;;;;;174.55;160.75;;;;;;;18.51;100.00;100903.09;5098943;28;20056;-91
2021/06/20 05:17:56;;;;;;;;;;;;;;;18.74;100.00;100897.44;5093658;28;20051;-91
2021/06/20 05:20:24;;;;;;;164.35;151.10;;;;;;;19.03;100.00;100905.19;5101131;28;19920;-90
2021/06/20 05:22:55;;;;;;;161.73;149.32;;;;;;;19.10;100.00;100908.50;5088914;28;20507;-91
2021/06/20 05:25:29;;;;;;;178.93;165.60;;;;;;;19.57;100.00;100902.34;5088950;28;20044;-91
2021/06/20 05:27:57;;;;;;;149.50;138.43;;;;;;;19.29;100.00;100894.63;5053796;28;20058;-91
2021/06/20 05:30:27;;;;;;;158.57;146.68;;;;;;;19.23;100.00;100891.09;5088638;28;20044;-90
2021/06/20 05:32:56;;;;;;;162.77;150.43;;;;;;;19.06;100.00;100895.81;5089923;28;20527;-91
2021/06/20 05:35:33;;;;;;;161.93;149.82;;;;;;;19.03;100.00;100902.50;5090262;28;20047;-90
2021/06/20 05:38:02;;;;;;;161.43;149.23;;;;;;;19.23;100.00;100908.06;5086945;28;20082;-91
2021/06/20 05:40:29;;;;;;;183.48;169.93;;;;;;;19.13;100.00;100915.25;5089694;28;20070;-90
2021/06/20 05:42:56;;;;;;;170.07;157.18;;;;;;;19.01;100.00;100917.31;5087098;28;20131;-90
2021/06/20 05:45:22;;;;;;;160.27;147.85;;;;;;;18.99;100.00;100918.38;5095163;28;20123;-90
2021/06/20 05:47:51;;;;;;;158.30;146.40;;;;;;;18.71;100.00;100918.63;5083616;28;20051;-90
2021/06/20 05:50:23;;;;;;;166.50;153.88;;;;;;;18.74;100.00;100916.28;5087836;28;20044;-91
2021/06/20 05:52:58;;;;;;;160.07;147.93;;;;;;;18.70;100.00;100920.53;5091996;28;21535;-91
2021/06/20 05:55:26;;;;;;;165.55;152.25;;;;;;;18.57;100.00;100920.13;5096274;28;20051;-91
2021/06/20 05:57:53;;;;;;;162.07;149.63;;;;;;;18.59;100.00;100918.00;5088603;28;20051;-91
2021/06/20 06:00:22;;;;;;;182.68;168.57;;;;;;;18.81;100.00;100917.94;5087909;28;20446;-91
2021/06/20 06:02:58;;;;;;;176.90;163.10;;;;;;;18.69;100.00;100915.38;5092985;28;20044;-91
2021/06/20 06:05:27;;;;;;;165.25;152.45;;;;;;;18.60;100.00;100920.41;5089701;28;20062;-89
2021/06/20 06:07:57;;;;;;;190.55;176.25;;;;;;;18.61;100.00;100911.28;5091159;28;20051;-90
2021/06/20 06:10:28;;;;;;;166.65;153.75;;;;;;;18.61;100.00;100908.59;5086928;28;20048;-90
2021/06/20 06:13:16;;;;;;;183.38;168.95;;;;;;;18.63;100.00;100911.03;5088126;28;20055;-90
2021/06/20 06:15:43;;;;;;;178.55;164.90;;;;;;;18.78;100.00;100905.81;5091184;28;20056;-90
2021/06/20 06:18:11;;;;;;;183.55;169.55;;;;;;;19.08;100.00;100899.88;5093139;28;20052;-91
2021/06/20 06:20:41;;;;;;;167.95;155.25;;;;;;;18.95;100.00;100901.13;5089002;28;20047;-89
2021/06/20 06:23:10;;;;;;;162.85;150.55;;;;;;;18.85;100.00;100892.13;5093256;28;20048;-91
2021/06/20 06:25:38;;;;;;;166.90;154.45;;;;;;;19.21;100.00;100896.75;5092134;28;20493;-89
2021/06/20 06:28:08;;;;;;;163.13;150.32;;;;;;;19.19;100.00;100896.19;5076126;28;20049;-90
2021/06/20 06:30:34;;;;;;;161.25;149.07;;;;;;;18.99;100.00;100893.34;5082761;28;20501;-91
2021/06/20 06:33:09;;;;;;;152.88;141.38;;;;;;;19.34;100.00;100887.41;5095593;28;20044;-90
2021/06/20 06:36:02;;;;;;;163.45;151.43;;;;;;;19.42;100.00;100888.78;5091363;28;20133;-91
2021/06/20 06:38:30;;;;;;;142.10;132.10;;;;;;;19.40;100.00;100889.06;5089222;28;20054;-90
2021/06/20 06:40:57;;;;;;;149.18;138.27;;;;;;;19.56;100.00;100889.94;5088713;28;20052;-90
2021/06/20 06:43:27;;;;;;;148.38;137.68;;;;;;;19.80;100.00;100884.97;5090829;28;20051;-90
2021/06/20 06:45:54;;;;;;;138.20;128.40;;;;;;;19.82;100.00;100882.03;5093360;28;20063;-90
2021/06/20 06:48:23;;;;;;;147.15;136.55;;;;;;;19.74;100.00;100886.03;5092097;28;20048;-90
2021/06/20 06:51:01;;;;;;;151.50;140.68;;;;;;;19.31;100.00;100895.19;5087778;28;20109;-91
2021/06/20 06:53:32;;;;;;;153.95;142.75;;;;;;;19.13;100.00;100899.91;5094048;28;20050;-90
2021/06/20 06:56:00;;;;;;;172.57;159.48;;;;;;;19.34;100.00;100906.25;5101411;28;20421;-91
2021/06/20 06:58:28;;;;;;;177.68;163.85;;;;;;;19.42;100.00;100916.50;5091020;28;20048;-89
2021/06/20 07:00:57;;;;;;;157.88;146.48;;;;;;;19.19;100.00;100917.72;5091072;28;20043;-91
2021/06/20 07:03:28;;;;;;;165.10;152.88;;;;;;;19.36;100.00;100919.44;5098267;28;20525;-90
2021/06/20 07:05:56;;;;;;;169.52;156.88;;;;;;;19.28;100.00;100925.34;5097680;28;20043;-90
2021/06/20 07:08:25;;;;;;;156.90;145.88;;;;;;;19.31;100.00;100912.16;5097062;28;20048;-90
2021/06/20 07:10:59;;;;;;;150.30;139.43;;;;;;;18.97;100.00;100909.75;5093903;28;20182;-90
2021/06/20 07:13:34;;;;;;;175.85;162.55;;;;;;;19.29;100.00;100918.88;5088078;28;20036;-90
2021/06/20 07:16:03;;;;;;;173.25;159.85;;;;;;;19.43;100.00;100920.03;5099630;28;20489;-91
2021/06/20 07:18:31;;;;;;;170.73;157.50;;;;;;;19.57;100.00;100915.81;5088459;28;20044;-90
2021/06/20 07:20:59;;;;;;;168.55;155.65;;;;;;;19.40;100.00;100915.19;5091907;28;20074;-90
2021/06/20 07:23:26;;;;;;;167.35;154.65;;;;;;;19.31;100.00;100922.94;5089343;28;20047;-90
2021/06/20 07:28:35;;;;;;;;;;;;;;;19.62;100.00;100915.84;5087114;28;20059;-91
2021/06/20 07:31:09;;;;;;;176.48;162.73;;;;;;;19.54;100.00;100915.50;5100989;28;19924;-92
2021/06/20 07:33:39;;;;;;;171.90;158.25;;;;;;;19.67;100.00;100909.72;5096248;28;20048;-90
2021/06/20 07:36:11;;;;;;;170.68;157.40;;;;;;;19.79;100.00;100909.47;5089789;28;20052;-89
2021/06/20 07:38:39;;;;;;;146.60;135.48;;;;;;;19.60;100.00;100907.19;5091664;28;20051;-91
2021/06/20 07:41:10;;;;;;;171.00;157.95;;;;;;;19.54;100.00;100910.13;5096054;28;20044;-90
2021/06/20 07:43:37;;;;;;;147.27;136.38;;;;;;;19.27;100.00;100902.16;5089919;28;20052;-90
2021/06/20 07:46:04;;;;;;;158.52;146.52;;;;;;;19.33;100.00;100903.81;5096379;28;20074;-90
2021/06/20 07:48:31;;;;;;;164.82;152.52;;;;;;;19.57;100.00;100901.53;5098453;28;20044;-90
2021/06/20 07:50:58;;;;;;;163.60;151.52;;;;;;;19.68;100.00;100895.97;5090355;28;20421;-91
2021/06/20 07:53:29;;;;;;;160.95;149.07;;;;;;;19.73;100.00;100883.56;5085854;28;20044;-92
2021/06/20 07:55:56;;;;;;;155.95;144.25;;;;;;;19.82;100.00;100887.41;5071548;28;20047;-90
2021/06/20 07:58:25;;;;;;;155.38;144.15;;;;;;;19.66;100.00;100884.63;5071092;28;20060;-90
2021/06/20 08:00:51;;;;;;;161.65;149.73;;;;;;;19.79;100.00;100886.06;5063186;28;20072;-91
2021/06/20 08:03:27;;;;;;;162.93;150.32;;;;;;;20.03;100.00;100888.28;5072597;28;20052;-90
2021/06/20 08:05:54;;;;;;;153.80;142.52;;;;;;;20.07;100.00;100882.09;5055535;28;20105;-91
2021/06/20 08:08:21;;;;;;;163.05;150.90;;;;;;;20.17;100.00;100873.22;5057593;28;20494;-90
2021/06/20 08:10:48;;;;;;;145.27;135.05;;;;;;;20.25;100.00;100875.41;5065372;28;20189;-89
2021/06/20 08:13:16;;;;;;;143.98;133.85;;;;;;;20.23;100.00;100874.84;5062978;28;20155;-91
2021/06/20 08:15:44;;;;;;;149.55;138.85;;;;;;;20.42;100.00;100871.66;5064016;28;20319;-91
2021/06/20 08:18:11;;;;;;;149.60;138.98;;;;;;;20.75;100.00;100864.97;5060580;28;20067;-92
2021/06/20 08:20:38;;;;;;;184.55;171.57;;;;;;;21.23;100.00;100870.84;5059888;28;20051;-91
2021/06/20 08:23:06;;;;;;;137.07;127.75;;;;;;;20.92;100.00;100854.69;5063942;28;20044;-91
2021/06/20 08:25:33;;;;;;;155.02;144.13;;;;;;;21.05;100.00;100864.94;5058982;28;20441;-91
2021/06/20 08:28:00;;;;;;;133.40;124.55;;;;;;;20.93;100.00;100858.22;5081137;28;20050;-92
2021/06/20 08:30:27;;;;;;;111.05;103.65;;;;;;;20.97;100.00;100854.72;5085906;28;20052;-90
2021/06/20 08:32:55;;;;;;;120.93;113.07;;;;;;;20.74;100.00;100861.47;5088327;28;20046;-90
2021/06/20 08:35:22;;;;;;;126.95;118.68;;;;;;;20.89;100.00;100851.75;5086481;28;20067;-91
2021/06/20 08:37:50;;;;;;;160.70;149.52;;;;;;;21.47;100.00;100857.59;5087436;28;20142;-92
2021/06/20 08:40:18;;;;;;;90.28;84.05;;;;;;;21.07;100.00;100845.78;5081982;28;20107;-90
2021/06/20 08:42:44;;;;;;;121.78;113.63;;;;;;;21.42;100.00;100860.28;5087631;28;20064;-91
2021/06/20 08:45:14;;;;;;;86.72;80.82;;;;;;;21.22;100.00;100851.16;5083233;28;20062;-91
2021/06/20 08:47:42;;;;;;;116.55;108.82;;;;;;;21.05;100.00;100854.13;5082222;28;20513;-91
2021/06/20 08:50:12;;;;;;;111.55;104.45;;;;;;;21.09;100.00;100850.88;5081601;28;20055;-91
2021/06/20 08:52:39;;;;;;;128.23;119.80;;;;;;;21.24;100.00;100854.38;5080651;28;20147;-90
2021/06/20 08:55:09;;;;;;;110.18;103.07;;;;;;;21.48;100.00;100851.94;5080219;28;20543;-91
2021/06/20 08:57:37;;;;;;;135.70;126.85;;;;;;;21.91;100.00;100846.06;5082420;28;20584;-91
2021/06/20 09:00:07;;;;;;;100.32;93.72;;;;;;;21.80;100.00;100853.41;5077565;28;20051;-90
2021/06/20 09:02:34;;;;;;;111.35;103.90;;;;;;;21.83;100.00;100843.94;5086125;28;20047;-91
2021/06/20 09:05:05;;;;;;;97.32;90.63;;;;;;;21.89;100.00;100845.53;5080932;28;20061;-91
2021/06/20 09:07:38;;;;;;;102.03;95.03;;;;;;;22.04;100.00;100842.75;5079348;28;20097;-89
2021/06/20 09:10:14;;;;;;;77.95;72.72;;;;;;;21.61;100.00;100853.22;5083728;28;20052;-90
2021/06/20 09:13:00;;;;;;;94.13;87.70;;;;;;;21.44;100.00;100858.94;5087397;28;20048;-90
2021/06/20 09:15:32;;;;;;;97.88;91.28;;;;;;;21.21;100.00;100857.63;5086488;28;20663;-90
2021/06/20 09:18:01;;;;;;;144.35;134.50;;;;;;;21.68;100.00;100858.31;5080224;28;20122;-89
2021/06/20 09:20:35;;;;;;;118.30;110.40;;;;;;;21.76;100.00;100852.34;5082552;28;20048;-90
2021/06/20 09:23:07;;;;;;;98.32;91.72;;;;;;;21.90;100.00;100850.63;5083412;28;20505;-92
2021/06/20 09:25:34;;;;;;;80.03;74.40;;;;;;;21.77;100.00;100856.66;5083130;28;20051;-91
2021/06/20 09:28:03;;;;;;;85.90;79.90;;;;;;;21.92;100.00;100840.38;5083123;28;20052;-90
2021/06/20 09:30:46;;;;;;;107.40;99.70;;;;;;;22.24;100.00;100844.56;5078458;28;20102;-91
2021/06/20 09:33:13;;;;;;;67.22;62.53;;;;;;;22.11;100.00;100829.69;5085478;28;20048;-91
2021/06/20 09:35:46;;;;;;;69.35;64.45;;;;;;;22.53;100.00;100833.78;5081672;28;20127;-90
2021/06/20 09:38:28;;;;;;;71.20;65.90;;;;;;;22.11;100.00;100832.41;5087082;28;20048;-88
2021/06/20 09:41:03;;;;;;;111.82;104.32;;;;;;;22.34;100.00;100832.84;5088877;28;20047;-91
2021/06/20 09:43:30;;;;;;;75.70;70.32;;;;;;;22.53;100.00;100827.56;5086041;28;20040;-91
2021/06/20 09:46:01;;;;;;;81.22;75.57;;;;;;;23.21;100.00;100826.69;5089303;28;20436;-91
2021/06/20 09:48:31;;;;;;;64.18;59.38;;;;;;;23.02;100.00;100827.41;5085436;28;20490;-92
2021/06/20 09:51:01;;;;;;;76.57;71.43;;;;;;;23.13;100.00;100830.00;5091428;28;20107;-92
2021/06/20 09:53:39;;;;;;;90.93;84.75;;;;;;;22.69;100.00;100829.03;5091955;28;20048;-91
2021/06/20 09:56:18;;;;;;;56.65;52.85;;;;;;;23.12;100.00;100825.69;5092980;28;20082;-91
2021/06/20 09:58:47;;;;;;;52.58;49.08;;;;;;;23.29;100.00;100826.84;5093405;28;20044;-92
2021/06/20 10:01:42;;;;;;;52.97;49.20;;;;;;;22.32;100.00;100816.06;5097075;28;20135;-92
2021/06/20 10:04:11;;;;;;;48.42;44.92;;;;;;;23.39;100.00;100819.69;5096379;28;20131;-92
2021/06/20 10:06:38;;;;;;;66.10;61.40;;;;;;;23.20;100.00;100825.06;5089718;28;20107;-91
2021/06/20 10:09:07;;;;;;;51.72;48.03;;;;;;;23.30;100.00;100822.25;5084939;28;20128;-91
2021/06/20 10:11:35;;;;;;;56.97;52.88;;;;;;;22.46;100.00;100821.66;5102549;28;20047;-91
2021/06/20 10:14:04;;;;;;;49.58;45.92;;;;;;;22.51;100.00;100821.59;5088266;28;20040;-91
2021/06/20 10:16:37;;;;;;;86.07;80.32;;;;;;;22.86;100.00;100824.00;5094137;28;20047;-92
2021/06/20 10:19:14;;;;;;;65.57;60.53;;;;;;;23.16;100.00;100821.31;5093888;28;20415;-90
2021/06/20 10:21:43;;;;;;;63.00;58.08;;;;;;;22.61;100.00;100816.13;5089425;28;20079;-88
2021/06/20 10:24:20;;;;;;;64.45;59.95;;;;;;;23.11;100.00;100818.66;5083333;28;20086;-91
2021/06/20 10:26:59;;;;;;;66.13;61.67;;;;;;;23.29;100.00;100813.28;5097547;28;20039;-91
2021/06/20 10:29:28;;;;;;;53.70;49.70;;;;;;;22.99;100.00;100808.22;5095407;28;20048;-91
2021/06/20 10:31:58;;;;;;;61.05;56.45;;;;;;;23.04;100.00;100808.16;5099780;28;20048;-92
2021/06/20 10:34:28;;;;;;;82.95;76.15;;;;;;;-143.39;100.00;64013.03;5100978;28;20050;-91
2021/06/20 10:36:56;;;;;;;81.70;76.15;;;;;;;23.77;100.00;100799.72;5094230;28;20036;-92
2021/06/20 10:39:26;;;;;;;57.55;53.40;;;;;;;23.79;100.00;100785.88;5099880;28;20072;-90
2021/06/20 10:42:10;;;;;;;58.58;54.38;;;;;;;23.72;100.00;100788.13;5106223;28;20048;-91
2021/06/20 10:44:54;;;;;;;45.03;41.83;;;;;;;23.00;100.00;100785.47;5086985;28;20047;-90
2021/06/20 10:47:38;;;;;;;49.17;45.65;;;;;;;23.04;100.00;100783.78;5090762;28;20075;-90
2021/06/20 10:50:11;;;;;;;46.47;43.05;;;;;;;23.79;100.00;100769.59;5095382;28;20091;-91
2021/06/20 10:52:39;;;;;;;41.08;38.38;;;;;;;23.72;100.00;100764.56;5096688;28;20061;-92
2021/06/20 10:55:16;;;;;;;45.90;42.80;;;;;;;23.59;100.00;100762.50;5097619;28;20040;-91
2021/06/20 10:57:51;;;;;;;52.30;48.90;;;;;;;23.08;100.00;100769.38;5091349;28;20458;-92
2021/06/20 11:03:29;;;;;;;46.75;43.35;;;;;;;22.99;100.00;100762.16;5092952;28;20048;-92
2021/06/20 11:06:00;;;;;;;52.28;48.78;;;;;;;23.85;100.00;100757.59;5093749;28;20040;-91
2021/06/20 11:08:31;;;;;;;43.10;40.10;;;;;;;23.29;100.00;100750.16;5090787;28;20056;-90